Time;durP1;ratioP1;P1;durP2;ratioP2;P2;SDS_P1;SDS_P2;PMS_P1;PMS_P2;Temp;Humidity;BMP_temperature;BMP_pressure;BME280_temperature;BME280_humidity;BME280_pressure;Samples;Min_cycle;Max_cycle;Signal;HPM_P1;HPM_P2
2023/06/25 14:27:54;;;;;;;10.95;5.32;;;;;;;28.50;85.47;101497.88;5127614;27;20117;-50
2023/06/25 14:30:20;;;;;;;9.35;5.40;;;;;;;28.02;91.28;101498.53;5116406;28;20426;-51
2023/06/25 14:32:47;;;;;;;6.47;4.97;;;;;;;28.19;89.98;101493.94;5130442;27;20425;-50
2023/06/25 14:35:14;;;;;;;6.10;4.55;;;;;;;28.27;83.57;101493.13;5125692;27;20039;-51
2023/06/25 14:37:41;;;;;;;9.02;5.35;;;;;;;27.88;98.59;101490.97;5127603;28;20410;-51
2023/06/25 14:40:08;;;;;;;6.82;4.40;;;;;;;27.62;95.44;101491.91;5106657;28;20442;-50
2023/06/25 14:42:35;;;;;;;6.82;4.90;;;;;;;27.79;92.50;101489.25;5110018;28;20419;-52
2023/06/25 14:45:04;;;;;;;8.82;4.97;;;;;;;27.55;93.74;101485.44;5091688;28;20452;-51
2023/06/25 14:47:32;;;;;;;7.75;5.78;;;;;;;27.67;94.33;101482.44;5129555;28;20050;-52
2023/06/25 14:49:59;;;;;;;6.22;4.30;;;;;;;27.70;95.93;101482.13;5130001;28;20055;-51
2023/06/25 14:52:26;;;;;;;6.90;4.82;;;;;;;27.40;99.63;101476.25;5118786;28;20526;-51
2023/06/25 14:54:53;;;;;;;6.45;4.80;;;;;;;27.44;100.00;101474.88;5114305;28;20051;-51
2023/06/25 14:57:20;;;;;;;9.55;5.53;;;;;;;27.73;94.68;101471.75;5123719;27;20048;-51
2023/06/25 14:59:46;;;;;;;8.07;5.28;;;;;;;27.88;92.31;101469.25;5121097;28;20086;-51
2023/06/25 15:02:13;;;;;;;7.35;5.05;;;;;;;27.74;95.45;101467.19;5127289;28;20078;-51
2023/06/25 15:04:40;;;;;;;8.98;6.10;;;;;;;27.48;98.24;101465.41;5110153;28;20044;-52
2023/06/25 15:07:06;;;;;;;11.82;5.55;;;;;;;27.52;100.00;101468.66;5109178;28;20135;-51
2023/06/25 15:09:33;;;;;;;6.45;4.80;;;;;;;28.00;95.42;101457.09;5121688;28;20560;-52
2023/06/25 15:11:59;;;;;;;7.53;5.30;;;;;;;28.23;99.63;101453.69;5112806;28;20328;-51
2023/06/25 15:14:26;;;;;;;8.43;4.68;;;;;;;28.44;96.55;101463.22;5114962;28;20132;-51
2023/06/25 15:16:53;;;;;;;9.02;5.53;;;;;;;29.01;89.38;101460.44;5129172;28;20165;-51
2023/06/25 15:19:19;;;;;;;11.32;5.72;;;;;;;29.38;84.10;101447.25;5126907;28;20511;-51
2023/06/25 15:21:46;;;;;;;8.50;5.80;;;;;;;29.25;84.19;101453.25;5125017;28;20084;-52
2023/06/25 15:24:12;;;;;;;8.82;5.10;;;;;;;29.45;83.15;101449.06;5128970;28;20044;-52
2023/06/25 15:26:39;;;;;;;9.80;6.60;;;;;;;29.34;84.35;101449.44;5121267;28;20058;-51
2023/06/25 15:29:06;;;;;;;10.32;5.18;;;;;;;29.91;84.58;101450.19;5120256;28;20047;-52
2023/06/25 15:31:33;;;;;;;6.90;5.03;;;;;;;29.32;84.75;101440.63;5129574;28;20058;-52
2023/06/25 15:33:59;;;;;;;9.70;5.43;;;;;;;29.08;86.25;101438.81;5122011;27;20063;-52
2023/06/25 15:36:26;;;;;;;8.18;5.57;;;;;;;29.70;85.75;101438.03;5118143;28;20051;-52
2023/06/25 15:38:54;;;;;;;11.77;5.05;;;;;;;30.95;69.35;101431.41;5112820;28;20044;-53
2023/06/25 15:41:20;;;;;;;8.68;4.95;;;;;;;32.14;62.05;101430.28;5110977;28;20139;-53
2023/06/25 15:43:48;;;;;;;10.07;5.18;;;;;;;32.77;55.32;101426.84;5114650;27;20086;-53
2023/06/25 15:46:15;;;;;;;6.65;5.10;;;;;;;33.23;54.65;101429.00;5094848;28;20456;-51
2023/06/25 15:48:42;;;;;;;6.57;5.32;;;;;;;33.54;51.86;101425.72;5114390;28;20047;-53
2023/06/25 15:51:09;;;;;;;7.93;5.50;;;;;;;33.30;53.65;101421.66;5103817;28;20084;-52
2023/06/25 15:53:35;;;;;;;6.97;4.72;;;;;;;34.10;46.91;101413.66;5094138;28;20513;-53
2023/06/25 15:56:03;;;;;;;6.95;4.13;;;;;;;34.05;45.79;101409.81;5113377;27;20047;-52
2023/06/25 15:58:29;;;;;;;7.45;4.82;;;;;;;33.84;46.31;101420.78;5121129;27;20132;-53
2023/06/25 16:00:56;;;;;;;9.25;4.88;;;;;;;34.11;46.09;101420.78;5115060;28;20093;-52
2023/06/25 16:03:22;;;;;;;9.98;4.20;;;;;;;33.79;45.70;101417.81;5095419;28;20051;-53
2023/06/25 16:05:50;;;;;;;5.65;4.45;;;;;;;33.92;46.02;101405.16;5100184;28;20109;-53
2023/06/25 16:08:16;;;;;;;6.85;4.57;;;;;;;32.39;49.97;101412.44;5114385;28;20054;-52
2023/06/25 16:10:43;;;;;;;6.32;4.20;;;;;;;31.82;51.81;101405.16;5113744;27;20351;-53
2023/06/25 16:13:09;;;;;;;8.27;4.05;;;;;;;32.36;50.37;101412.00;5096924;28;20054;-52
2023/06/25 16:15:36;;;;;;;4.63;3.75;;;;;;;31.77;53.18;101396.72;5101432;28;20175;-52
2023/06/25 16:18:03;;;;;;;5.82;4.68;;;;;;;31.12;59.49;101399.28;5108098;28;20083;-52
2023/06/25 16:20:30;;;;;;;6.35;4.70;;;;;;;31.23;62.33;101398.81;5107829;28;20044;-52
2023/06/25 16:22:56;;;;;;;8.43;3.92;;;;;;;30.72;67.00;101388.66;5111842;28;20079;-51
2023/06/25 16:25:23;;;;;;;11.70;6.03;;;;;;;30.96;66.09;101391.31;5114305;28;20052;-52
2023/06/25 16:27:49;;;;;;;10.00;5.18;;;;;;;30.61;72.05;101385.56;5107846;28;20047;-51
2023/06/25 16:30:16;;;;;;;10.32;4.93;;;;;;;30.16;73.93;101389.03;5102686;28;20382;-51
2023/06/25 16:32:42;;;;;;;6.32;4.68;;;;;;;30.16;69.16;101378.13;5103353;28;20048;-51
2023/06/25 16:35:09;;;;;;;7.25;4.78;;;;;;;30.96;61.54;101383.13;5111734;28;20059;-51
2023/06/25 16:37:37;;;;;;;7.38;4.47;;;;;;;31.18;59.16;101376.69;5108976;28;20055;-51
2023/06/25 16:40:05;;;;;;;8.30;4.97;;;;;;;31.70;57.27;101380.25;5113867;28;20047;-50
2023/06/25 16:42:32;;;;;;;8.35;4.50;;;;;;;31.91;56.22;101375.81;5113933;28;20075;-50
2023/06/25 16:44:58;;;;;;;7.88;5.18;;;;;;;32.02;55.47;101376.16;5113423;28;20063;-51
2023/06/25 16:47:25;;;;;;;6.00;4.40;;;;;;;32.23;54.28;101373.59;5102538;28;20135;-53
2023/06/25 16:49:52;;;;;;;5.32;4.65;;;;;;;32.20;54.89;101377.56;5097876;28;20129;-52
2023/06/25 16:52:18;;;;;;;7.28;4.93;;;;;;;31.76;58.29;101378.63;5110737;28;20048;-52
2023/06/25 16:54:45;;;;;;;7.65;4.40;;;;;;;30.66;60.45;101377.66;5093212;28;20387;-52
2023/06/25 16:57:11;;;;;;;6.30;4.80;;;;;;;30.05;64.89;101381.28;5109461;28;20506;-52
2023/06/25 16:59:38;;;;;;;6.00;5.03;;;;;;;29.99;74.11;101371.13;5113499;28;20470;-52
2023/06/25 17:02:04;;;;;;;7.95;5.22;;;;;;;29.24;83.59;101372.59;5103687;28;20090;-52
2023/06/25 17:04:34;;;;;;;7.97;5.53;;;;;;;28.99;84.53;101369.13;5091260;28;20074;-52
2023/06/25 17:07:02;;;;;;;9.48;5.00;;;;;;;28.57;85.66;101376.56;5075240;28;20449;-52
2023/06/25 17:09:29;;;;;;;8.20;4.40;;;;;;;28.51;88.17;101371.78;5092119;28;20181;-52
2023/06/25 17:11:56;;;;;;;4.93;4.40;;;;;;;28.16;91.03;101368.44;5108959;28;20090;-52
2023/06/25 17:14:25;;;;;;;7.70;4.38;;;;;;;27.61;96.23;101369.91;5109757;28;20105;-52
2023/06/25 17:16:52;;;;;;;12.67;5.00;;;;;;;27.33;100.00;101363.91;5113281;28;20050;-52
2023/06/25 17:19:19;;;;;;;10.20;5.43;;;;;;;27.01;100.00;101368.19;5112269;28;20289;-52
2023/06/25 17:21:46;;;;;;;8.15;4.53;;;;;;;26.82;100.00;101366.56;5113319;28;20082;-51
2023/06/25 17:24:13;;;;;;;7.22;4.65;;;;;;;26.67;100.00;101361.75;5098301;28;20071;-52
2023/06/25 17:26:40;;;;;;;8.23;5.05;;;;;;;26.49;100.00;101359.06;5092556;28;20094;-51
2023/06/25 17:29:06;;;;;;;8.65;4.20;;;;;;;26.42;100.00;101358.00;5101954;28;20440;-52
2023/06/25 17:31:33;;;;;;;5.72;4.32;;;;;;;26.26;100.00;101360.63;5110923;28;20286;-51
2023/06/25 17:34:00;;;;;;;7.95;4.88;;;;;;;26.28;100.00;101361.28;5106984;28;20058;-51
2023/06/25 17:36:27;;;;;;;5.22;3.90;;;;;;;26.37;100.00;101360.34;5112375;28;20572;-51
2023/06/25 17:38:54;;;;;;;7.55;4.75;;;;;;;26.30;100.00;101353.84;5113455;28;20109;-51
2023/06/25 17:41:21;;;;;;;6.38;4.63;;;;;;;26.24;100.00;101359.91;5104983;28;20135;-51
2023/06/25 17:43:48;;;;;;;7.70;5.05;;;;;;;26.12;100.00;101360.19;5103473;28;20104;-52
2023/06/25 17:46:14;;;;;;;6.97;5.03;;;;;;;26.08;100.00;101366.91;5112648;28;20150;-51
2023/06/25 17:48:41;;;;;;;8.88;5.05;;;;;;;26.00;100.00;101364.13;5113206;28;20112;-52
2023/06/25 17:51:08;;;;;;;7.30;4.57;;;;;;;25.97;100.00;101361.72;5109425;28;20059;-51
2023/06/25 17:53:37;;;;;;;8.43;4.60;;;;;;;25.93;100.00;101365.75;5113077;28;20058;-51
2023/06/25 17:56:05;;;;;;;9.07;4.78;;;;;;;25.68;100.00;101368.22;5112657;28;20120;-51
2023/06/25 17:58:31;;;;;;;6.88;4.32;;;;;;;25.57;100.00;101368.44;5112716;28;20039;-52
2023/06/25 18:00:58;;;;;;;5.03;4.00;;;;;;;25.46;100.00;101364.94;5109486;28;20381;-51
2023/06/25 18:03:26;;;;;;;4.93;4.00;;;;;;;25.42;100.00;101363.56;5112461;28;20464;-51
2023/06/25 18:05:53;;;;;;;5.85;4.20;;;;;;;25.39;100.00;101365.72;5109044;28;20493;-51
2023/06/25 18:08:20;;;;;;;9.52;4.95;;;;;;;25.30;100.00;101367.47;5106707;28;20044;-51
2023/06/25 18:10:53;;;;;;;6.38;5.10;;;;;;;25.24;100.00;101373.44;5105047;28;20048;-51
2023/06/25 18:13:20;;;;;;;10.75;4.80;;;;;;;25.23;100.00;101360.94;5113269;28;20163;-51
2023/06/25 18:15:48;;;;;;;8.60;4.97;;;;;;;25.27;100.00;101356.94;5105628;28;20048;-51
2023/06/25 18:18:21;;;;;;;9.80;5.00;;;;;;;25.06;100.00;101366.16;5092508;28;20123;-50
2023/06/25 18:20:48;;;;;;;7.03;4.75;;;;;;;24.98;100.00;101368.75;5092177;28;20078;-51
2023/06/25 18:23:14;;;;;;;7.60;4.20;;;;;;;24.89;100.00;101370.47;5107331;28;20059;-51
2023/06/25 18:25:41;;;;;;;7.75;4.85;;;;;;;24.81;100.00;101366.81;5111794;28;20139;-51
2023/06/25 18:28:08;;;;;;;6.32;4.43;;;;;;;24.87;100.00;101363.53;5101110;28;20146;-51
2023/06/25 18:30:36;;;;;;;6.95;5.28;;;;;;;24.77;100.00;101360.88;5109112;28;20051;-51
2023/06/25 18:33:04;;;;;;;11.07;5.03;;;;;;;24.69;100.00;101367.00;5108640;28;20520;-51
2023/06/25 18:35:30;;;;;;;8.02;4.05;;;;;;;24.63;100.00;101359.47;5091808;28;20129;-51
2023/06/25 18:37:57;;;;;;;7.05;4.95;;;;;;;24.59;100.00;101368.06;5111403;28;20135;-51
2023/06/25 18:40:23;;;;;;;8.10;4.13;;;;;;;24.50;100.00;101364.34;5109959;28;20650;-51
2023/06/25 18:42:52;;;;;;;6.28;4.57;;;;;;;24.41;100.00;101359.81;5092991;28;20349;-51
2023/06/25 18:45:18;;;;;;;5.90;4.47;;;;;;;24.30;100.00;101350.88;5096020;28;20354;-51
2023/06/25 18:47:45;;;;;;;7.65;4.88;;;;;;;24.24;100.00;101353.31;5112372;28;20324;-50
2023/06/25 18:50:13;;;;;;;7.35;5.07;;;;;;;24.12;100.00;101344.50;5112473;28;20651;-51
2023/06/25 18:52:40;;;;;;;6.32;4.40;;;;;;;24.02;100.00;101351.78;5102643;28;20052;-51
2023/06/25 18:55:07;;;;;;;6.35;4.70;;;;;;;23.92;100.00;101344.53;5101432;28;20147;-51
2023/06/25 18:57:34;;;;;;;6.35;4.75;;;;;;;23.85;100.00;101348.81;5100132;28;20119;-51
2023/06/25 19:00:01;;;;;;;7.32;4.85;;;;;;;23.77;100.00;101346.78;5107589;28;20071;-51
2023/06/25 19:02:28;;;;;;;7.85;5.18;;;;;;;23.73;100.00;101336.41;5106521;28;20047;-50
2023/06/25 19:04:55;;;;;;;6.15;4.95;;;;;;;23.70;100.00;101339.38;5100873;28;20539;-51
2023/06/25 19:07:21;;;;;;;7.75;5.35;;;;;;;23.69;100.00;101340.41;5111992;28;20489;-51
2023/06/25 19:09:48;;;;;;;8.07;5.55;;;;;;;23.70;100.00;101342.09;5112351;28;20056;-51
2023/06/25 19:12:15;;;;;;;6.82;4.82;;;;;;;23.67;100.00;101342.34;5109354;28;20075;-51
2023/06/25 19:14:42;;;;;;;6.57;5.57;;;;;;;23.53;100.00;101336.38;5105538;28;20052;-51
2023/06/25 19:17:09;;;;;;;10.63;5.53;;;;;;;23.47;100.00;101334.25;5112785;28;20454;-51
2023/06/25 19:19:36;;;;;;;9.63;4.68;;;;;;;23.35;100.00;101346.16;5116168;28;20624;-51
2023/06/25 19:22:03;;;;;;;9.05;5.53;;;;;;;23.23;100.00;101343.59;5104389;28;20062;-51
2023/06/25 19:24:30;;;;;;;6.78;5.22;;;;;;;23.12;100.00;101346.41;5102660;28;20447;-52
2023/06/25 19:26:58;;;;;;;8.57;5.57;;;;;;;23.04;100.00;101354.28;5115251;28;20047;-51
2023/06/25 19:29:24;;;;;;;8.35;5.30;;;;;;;22.96;100.00;101351.41;5115157;28;20079;-53
2023/06/25 19:31:52;;;;;;;7.10;5.50;;;;;;;22.87;100.00;101348.56;5101805;28;20143;-51
2023/06/25 19:34:19;;;;;;;6.78;5.25;;;;;;;22.81;100.00;101354.47;5095026;28;20109;-51
2023/06/25 19:36:46;;;;;;;7.22;5.07;;;;;;;22.73;100.00;101357.00;5095293;28;20055;-51
2023/06/25 19:39:12;;;;;;;8.32;6.25;;;;;;;22.59;100.00;101352.84;5104037;28;20048;-51
2023/06/25 19:41:39;;;;;;;8.75;5.00;;;;;;;22.48;100.00;101364.53;5111003;28;20056;-51
2023/06/25 19:44:06;;;;;;;8.32;5.18;;;;;;;22.32;100.00;101361.44;5115808;28;20048;-51
2023/06/25 19:46:32;;;;;;;8.45;5.70;;;;;;;22.17;100.00;101361.75;5114836;28;20387;-51
2023/06/25 19:48:59;;;;;;;7.40;5.53;;;;;;;22.02;100.00;101357.69;5108057;28;20126;-51
2023/06/25 19:51:26;;;;;;;10.57;5.78;;;;;;;21.92;100.00;101357.59;5111767;28;20049;-51
2023/06/25 19:53:52;;;;;;;6.93;5.20;;;;;;;21.95;100.00;101360.03;5116104;28;20062;-51
2023/06/25 19:56:19;;;;;;;7.70;4.82;;;;;;;21.92;100.00;101357.59;5097957;28;20051;-51
2023/06/25 19:58:45;;;;;;;6.60;5.30;;;;;;;21.90;100.00;101358.69;5102472;28;20062;-51
2023/06/25 20:01:12;;;;;;;11.43;5.68;;;;;;;21.84;100.00;101365.47;5095433;28;20078;-51
2023/06/25 20:03:40;;;;;;;8.23;6.15;;;;;;;21.75;100.00;101364.38;5095459;28;20048;-51
2023/06/25 20:06:06;;;;;;;6.95;5.68;;;;;;;21.67;100.00;101358.78;5105687;28;20053;-51
2023/06/25 20:08:33;;;;;;;8.90;6.05;;;;;;;21.54;100.00;101363.47;5110995;28;20406;-51
2023/06/25 20:10:59;;;;;;;10.48;6.32;;;;;;;21.45;100.00;101363.22;5114810;28;20088;-50
2023/06/25 20:13:26;;;;;;;11.18;6.50;;;;;;;21.38;100.00;101364.72;5112884;28;20079;-52
2023/06/25 20:15:53;;;;;;;8.85;6.13;;;;;;;21.27;100.00;101367.41;5109377;28;20050;-51
2023/06/25 20:18:19;;;;;;;10.25;6.30;;;;;;;21.20;100.00;101360.81;5114927;28;20131;-52
2023/06/25 20:20:46;;;;;;;8.80;6.97;;;;;;;21.13;100.00;101365.00;5114804;28;20459;-51
2023/06/25 20:23:13;;;;;;;9.35;6.30;;;;;;;21.08;100.00;101360.81;5098901;28;20135;-51
2023/06/25 20:25:40;;;;;;;7.63;6.13;;;;;;;21.01;100.00;101369.53;5094028;28;20048;-51
2023/06/25 20:28:07;;;;;;;16.38;8.57;;;;;;;20.88;100.00;101366.97;5098220;28;20036;-50
2023/06/25 20:30:33;;;;;;;8.98;6.75;;;;;;;20.75;100.00;101369.75;5109235;28;20052;-50
2023/06/25 20:33:04;;;;;;;10.15;6.93;;;;;;;20.65;100.00;101368.78;5112121;28;20051;-51
2023/06/25 20:35:30;;;;;;;9.13;6.55;;;;;;;20.61;100.00;101365.44;5095181;28;20135;-51
2023/06/25 20:37:57;;;;;;;10.30;7.15;;;;;;;20.60;100.00;101370.94;5094847;28;20079;-53
2023/06/25 20:40:24;;;;;;;14.13;6.53;;;;;;;20.48;100.00;101378.09;5107094;28;20513;-50
2023/06/25 20:42:50;;;;;;;9.93;7.13;;;;;;;20.39;100.00;101378.84;5114843;28;20124;-50
2023/06/25 20:45:17;;;;;;;8.88;7.05;;;;;;;20.35;100.00;101372.84;5111665;28;20061;-51
2023/06/25 20:47:44;;;;;;;15.73;8.57;;;;;;;20.34;100.00;101374.66;5115025;28;20043;-51
2023/06/25 20:50:11;;;;;;;8.70;7.00;;;;;;;20.32;100.00;101376.63;5106511;28;20128;-51
2023/06/25 20:52:38;;;;;;;13.00;7.63;;;;;;;20.34;100.00;101385.41;5094227;28;20109;-51
2023/06/25 20:55:04;;;;;;;10.35;6.88;;;;;;;20.28;100.00;101380.50;5093477;28;20044;-50
2023/06/25 20:57:31;;;;;;;10.93;7.30;;;;;;;20.24;100.00;101387.09;5112639;28;20052;-51
2023/06/25 20:59:57;;;;;;;10.93;7.65;;;;;;;20.18;100.00;101379.50;5114724;28;20043;-50
2023/06/25 21:02:24;;;;;;;10.98;7.72;;;;;;;20.18;100.00;101385.72;5101415;28;20384;-51
2023/06/25 21:04:51;;;;;;;15.23;7.57;;;;;;;20.19;100.00;101386.59;5101632;28;20047;-51
2023/06/25 21:07:17;;;;;;;16.15;7.75;;;;;;;20.16;100.00;101390.34;5107706;28;20050;-50
2023/06/25 21:09:44;;;;;;;21.55;7.95;;;;;;;20.13;100.00;101387.06;5108067;28;20052;-52
2023/06/25 21:12:10;;;;;;;15.85;7.20;;;;;;;20.10;100.00;101387.28;5114429;28;20130;-51
2023/06/25 21:14:38;;;;;;;10.45;7.78;;;;;;;20.04;100.00;101388.63;5101182;28;20123;-51
2023/06/25 21:17:05;;;;;;;9.32;7.13;;;;;;;19.97;100.00;101396.25;5094150;28;20059;-51
2023/06/25 21:19:31;;;;;;;14.23;8.20;;;;;;;19.90;100.00;101389.66;5097452;28;20046;-52
2023/06/25 21:21:58;;;;;;;11.75;7.40;;;;;;;19.84;100.00;101382.06;5110754;28;20058;-51
2023/06/25 21:24:24;;;;;;;17.58;7.47;;;;;;;19.82;100.00;101394.72;5112387;28;20158;-51
2023/06/25 21:26:51;;;;;;;9.23;7.18;;;;;;;19.76;100.00;101390.69;5102652;28;20507;-51
2023/06/25 21:29:17;;;;;;;11.02;7.85;;;;;;;19.69;100.00;101388.53;5103903;28;20048;-51
2023/06/25 21:31:44;;;;;;;9.68;7.30;;;;;;;19.69;100.00;101394.75;5098300;28;20043;-51
2023/06/25 21:34:10;;;;;;;12.45;8.18;;;;;;;19.69;100.00;101388.53;5093815;28;20047;-51
2023/06/25 21:36:37;;;;;;;13.30;7.75;;;;;;;19.67;100.00;101390.50;5104800;28;20075;-51
2023/06/25 21:39:06;;;;;;;12.73;8.10;;;;;;;19.66;100.00;101399.50;5093345;28;20040;-51
2023/06/25 21:41:33;;;;;;;11.50;8.02;;;;;;;19.54;100.00;101396.75;5102186;28;20120;-51
2023/06/25 21:44:00;;;;;;;11.25;7.93;;;;;;;19.45;100.00;101402.75;5109498;28;20048;-51
2023/06/25 21:46:26;;;;;;;12.23;8.73;;;;;;;19.45;100.00;101405.44;5113512;28;20435;-51
2023/06/25 21:48:53;;;;;;;13.88;8.70;;;;;;;19.45;100.00;101408.13;5107671;28;20047;-51
2023/06/25 21:51:19;;;;;;;12.70;8.57;;;;;;;19.42;100.00;101411.06;5108108;28;20084;-51
2023/06/25 21:53:46;;;;;;;12.85;9.93;;;;;;;19.38;100.00;101399.69;5107115;28;20056;-51
2023/06/25 21:56:12;;;;;;;13.15;9.13;;;;;;;19.31;100.00;101406.47;5102044;28;20615;-51
2023/06/25 21:58:39;;;;;;;14.75;8.77;;;;;;;19.28;100.00;101413.88;5093454;28;20050;-51
2023/06/25 22:01:05;;;;;;;12.68;8.90;;;;;;;19.24;100.00;101411.41;5103360;28;20082;-51
2023/06/25 22:03:32;;;;;;;13.13;9.88;;;;;;;19.24;100.00;101408.72;5093277;28;20436;-51
2023/06/25 22:05:58;;;;;;;10.73;8.98;;;;;;;19.24;100.00;101411.41;5096574;28;20051;-51
2023/06/25 22:08:25;;;;;;;15.23;9.07;;;;;;;19.22;100.00;101402.63;5096317;28;21537;-51
2023/06/25 22:10:51;;;;;;;13.38;8.77;;;;;;;19.16;100.00;101403.06;5099664;28;20050;-51
2023/06/25 22:13:18;;;;;;;11.20;8.13;;;;;;;19.10;100.00;101398.13;5107482;28;20047;-51
2023/06/25 22:15:45;;;;;;;11.80;9.27;;;;;;;19.08;100.00;101394.72;5113037;28;20087;-51
2023/06/25 22:18:12;;;;;;;13.63;9.68;;;;;;;19.04;100.00;101398.56;5103229;28;20044;-51
2023/06/25 22:20:39;;;;;;;14.35;8.98;;;;;;;19.03;100.00;101400.41;5102688;28;20123;-52
2023/06/25 22:23:06;;;;;;;12.82;10.27;;;;;;;19.02;100.00;101400.50;5106489;28;20546;-51
2023/06/25 22:25:32;;;;;;;17.10;10.98;;;;;;;19.02;100.00;101405.88;5101661;28;20061;-52
2023/06/25 22:28:00;;;;;;;19.00;10.60;;;;;;;18.87;100.00;101410.50;5110293;28;20048;-51
2023/06/25 22:30:26;;;;;;;12.98;10.48;;;;;;;18.76;100.00;101413.88;5104144;28;20470;-51
2023/06/25 22:32:53;;;;;;;14.35;9.52;;;;;;;18.80;100.00;101407.34;5108253;28;20052;-51
2023/06/25 22:35:20;;;;;;;17.55;10.93;;;;;;;18.74;100.00;101410.47;5112850;28;20055;-51
2023/06/25 22:37:46;;;;;;;20.15;10.55;;;;;;;18.72;100.00;101417.75;5105378;28;20091;-51
2023/06/25 22:40:13;;;;;;;14.50;10.57;;;;;;;18.70;100.00;101403.59;5092659;28;20070;-51
2023/06/25 22:42:39;;;;;;;13.95;11.15;;;;;;;18.62;100.00;101408.63;5094775;28;20131;-51
2023/06/25 22:45:06;;;;;;;13.32;10.30;;;;;;;18.59;100.00;101400.81;5111678;28;20141;-51
2023/06/25 22:47:33;;;;;;;16.30;11.15;;;;;;;18.65;100.00;101405.72;5113189;28;20519;-51
2023/06/25 22:50:00;;;;;;;12.02;9.73;;;;;;;18.71;100.00;101402.63;5110615;28;20352;-51
2023/06/25 22:52:26;;;;;;;14.48;10.32;;;;;;;18.69;100.00;101404.56;5117143;28;20047;-51
2023/06/25 22:54:53;;;;;;;14.13;11.38;;;;;;;18.63;100.00;101397.81;5113568;28;20043;-51
2023/06/25 22:57:20;;;;;;;13.52;10.40;;;;;;;18.61;100.00;101406.94;5116892;28;20477;-51
2023/06/25 22:59:47;;;;;;;13.93;11.25;;;;;;;18.63;100.00;101405.00;5113498;28;20142;-51
2023/06/25 23:02:14;;;;;;;14.45;10.20;;;;;;;18.61;100.00;101401.56;5097220;28;20127;-51
2023/06/25 23:04:42;;;;;;;14.18;10.35;;;;;;;18.59;100.00;101398.16;5096205;28;20134;-51
2023/06/25 23:07:09;;;;;;;16.23;11.23;;;;;;;18.58;100.00;101401.78;5096283;28;20472;-51
2023/06/25 23:09:36;;;;;;;13.32;10.88;;;;;;;18.55;100.00;101396.63;5096320;28;20113;-51
2023/06/25 23:12:03;;;;;;;13.32;10.23;;;;;;;18.52;100.00;101393.22;5102945;28;20100;-52
2023/06/25 23:14:30;;;;;;;14.23;9.70;;;;;;;18.48;100.00;101402.41;5116540;28;20427;-51
2023/06/25 23:16:57;;;;;;;13.10;9.55;;;;;;;18.44;100.00;101390.22;5114199;28;20051;-51
2023/06/25 23:19:24;;;;;;;13.15;10.65;;;;;;;18.41;100.00;101390.41;5115865;28;20122;-51
2023/06/25 23:21:52;;;;;;;13.40;10.32;;;;;;;18.38;100.00;101384.44;5116453;28;20174;-51
2023/06/25 23:24:18;;;;;;;12.85;10.55;;;;;;;18.33;100.00;101388.25;5111005;28;20052;-51
2023/06/25 23:26:46;;;;;;;13.30;10.15;;;;;;;18.31;100.00;101384.00;5116243;28;20070;-51
2023/06/25 23:29:14;;;;;;;15.63;10.68;;;;;;;18.25;100.00;101382.56;5113006;28;20039;-51
2023/06/25 23:31:42;;;;;;;16.67;10.65;;;;;;;18.23;100.00;101380.97;5116620;27;20044;-51
2023/06/25 23:34:09;;;;;;;10.50;9.20;;;;;;;18.17;100.00;101377.72;5115901;28;20058;-51
2023/06/25 23:36:36;;;;;;;16.17;12.10;;;;;;;18.15;100.00;101385.00;5094949;28;20837;-51
2023/06/25 23:39:02;;;;;;;17.63;10.95;;;;;;;18.11;100.00;101372.81;5095882;28;20119;-52
2023/06/25 23:41:29;;;;;;;16.95;10.48;;;;;;;18.05;100.00;101378.59;5096229;28;20482;-50
2023/06/25 23:43:56;;;;;;;13.27;9.93;;;;;;;18.00;100.00;101377.16;5099797;28;20131;-51
2023/06/25 23:46:22;;;;;;;14.60;10.95;;;;;;;17.99;100.00;101376.31;5098478;28;20044;-51
2023/06/25 23:48:49;;;;;;;13.50;10.10;;;;;;;18.04;100.00;101378.69;5110922;27;20043;-51
2023/06/25 23:51:16;;;;;;;12.40;9.60;;;;;;;18.03;100.00;101374.28;5136711;27;20047;-51
2023/06/25 23:53:43;;;;;;;11.77;9.70;;;;;;;17.98;100.00;101371.91;5102567;27;20057;-51
2023/06/25 23:56:09;;;;;;;16.52;11.13;;;;;;;17.96;100.00;101366.69;5102541;28;20048;-51
2023/06/25 23:58:36;;;;;;;14.85;11.15;;;;;;;17.98;100.00;101367.44;5103991;28;20048;-51
